Aérodrome :
LOGIN :

S'inscrire | Disclaimer

   EN    FR    IT 

 










Légende :    VFR   VFR Marginal   IFR   IFR Intensif   IFR Très Intensif
Visi : 
Plafond : 
>= 8 km
>= 3000ft
5 à 8 km
1000 à 3000 ft
1500m à 5 km
500 à 1000 ft
800 à 1500m
200 à 500 ft
< 800m
< 200 ft
Symboles :   Orages  Brouillard  Fortes neiges  Fortes précipitations  Vent > 20 kt
SIGMETs :   Divers  Orages  Givrage  Turbulence  Onde Orograph.  Cendres Volcan.






- Altitude de l'aérodrome : 75 ft
- Code IATA : YEO


EGDY - RNAS Yeovilton

DERNIER METAR :
  • 041120Z 20010KT 9999 FEW025 BKN060 BKN080 18/10 Q1017 NOSIG RMK BLU BLU

METARs EXPIRÉS :
  • 041050Z 20010KT 9999 FEW025 BKN060 17/09 Q1017 NOSIG RMK BLU BLU
  • 041020Z 19009KT 9999 FEW025 BKN060 17/10 Q1017 NOSIG RMK BLU BLU
  • 040950Z 21006KT 9999 FEW025 BKN070 17/10 Q1017 NOSIG RMK BLU BLU
  • 040920Z 20009KT 9999 FEW025 BKN070 17/08 Q1017 NOSIG RMK BLU BLU
  • 040850Z AUTO 22008KT 9999 FEW070/// BKN100/// BKN160/// 17/08 Q1017

TAF TAF EGDY
Valide du 04 à 12h jusqu'au 04 à 21h UTC


041102Z 0412/0421 21012KT 9999 FEW030
BECMG 0416/0418 BKN018
TEMPO 0418/0421 SCT012



MET'MAP, la Météo Aéronautique d'un coup d'oeil ! - Copyright ORBIFLY Décembre 2007 - Disclaimer

ORBIFLY MET'MAP TEAM :

Programmation & Développement : Alexandra Zaïnal
Sur une idée originale de : Baudouin d'Aumeries
Assistance à la programmation : Marc-Olivier Méhu
Soutien technique & logistique : Manuel Goepfert

Contact : metmap@orbifly.com




SOURCES & CREDITS :

   NOAA